LCR weather

La Chorrera Airport
La Chorrera, Amazonas Department, Colombia

Public forecast

Using degrees Celsius for public forecast. Weather courtesy of forecast.io.

Closest aviation weather report (METAR) to La Chorrera Airport

Report is more than 6 hours old.

Closest report is Fabio Alberto Leon Bentley Airport, 205.3 nm (380.2 km) NE. Retrieved 2019/09/14 18:00 UTC (1 month ago):

SKMU 141800Z 30005KT 9999 SCT020 29/23 A3000

Closest aviation forecast (TAF) to La Chorrera Airport

Forecast is more than 12 hours old.

Closest forecast is Nueva Loja Airport, 236.5 nm (437.9 km) WNW. Retrieved 2018/09/09 12:03 UTC (1 year ago):

TAF TAF SCDA 091040Z 0912/1012 19004KT 9999 OVC020 TX18/0917Z TN16/1006ZLVA0571 091200 GG EBBRYZYX EBBRYZYZ EGGYYBYA KMKMYTYX KWBCYMYX MPLBYFYX MPTOYMYX 091200 SEQUYZYX SAEQ01 SEQU 091200 RRB METAR SENL 091200Z 36002KT 9999 SCT030 BKN100 22/21 Q1013 RMK A2994